Time,TemperatureF,DewpointF,PressureIn,WindDirection,WindDirectionDegrees,WindSpeedMPH,WindSpeedGustMPH,Humidity,HourlyPrecipIn,Conditions,Clouds,dailyrainin,SoftwareType,DateUTC
2013-03-17 00:00:00,18.2,15.5,29.98,North,360,0.0,0.0,89,0.00,CLR,,0.00,WeatherDisplay:10.37,2013-03-17 04:00:00,
2013-03-17 00:05:00,18.1,15.4,29.98,North,5,0.0,0.0,89,0.00,CLR,,0.00,WeatherDisplay:10.37,2013-03-17 04:05:00,
2013-03-17 00:10:00,18.0,15.3,29.98,North,360,0.0,0.0,89,0.00,CLR,,0.00,WeatherDisplay:10.37,2013-03-17 04:10:00,
2013-03-17 00:15:00,18.0,15.3,29.98,North,5,0.0,0.0,89,0.00,CLR,,0.00,WeatherDisplay:10.37,2013-03-17 04:15:00,
2013-03-17 00:20:00,18.1,15.4,29.98,North,5,0.3,1.2,89,0.00,CLR,,0.00,WeatherDisplay:10.37,2013-03-17 04:20:00,
2013-03-17 00:25:00,18.1,15.4,29.98,North,360,0.0,0.0,89,0.00,CLR,,0.00,WeatherDisplay:10.37,2013-03-17 04:25:00,
2013-03-17 00:30:00,18.3,15.6,29.98,North,5,0.0,0.0,89,0.00,CLR,,0.00,WeatherDisplay:10.37,2013-03-17 04:30:00,
2013-03-17 00:35:00,18.4,15.7,29.98,North,5,0.0,0.0,89,0.00,CLR,,0.00,WeatherDisplay:10.37,2013-03-17 04:35:00,
2013-03-17 00:40:00,18.5,15.8,29.98,North,360,0.0,0.0,89,0.00,CLR,,0.00,WeatherDisplay:10.37,2013-03-17 04:40:00,
2013-03-17 00:45:00,18.5,15.8,29.98,North,5,0.0,1.2,89,0.00,CLR,,0.00,WeatherDisplay:10.37,2013-03-17 04:45:00,
2013-03-17 00:50:00,18.5,15.8,29.99,North,5,0.0,0.0,89,0.00,CLR,,0.00,WeatherDisplay:10.37,2013-03-17 04:50:00,
2013-03-17 00:55:00,18.5,15.8,29.99,North,5,0.1,2.3,89,0.00,CLR,,0.00,WeatherDisplay:10.37,2013-03-17 04:55:00,
2013-03-17 01:00:00,18.6,16.2,29.99,North,5,0.6,3.5,90,0.00,CLR,,0.00,WeatherDisplay:10.37,2013-03-17 05:00:00,
2013-03-17 01:05:00,18.8,16.4,30.00,North,360,0.3,2.3,90,0.00,BKN,,0.00,WeatherDisplay:10.37,2013-03-17 05:05:00,
2013-03-17 01:10:00,19.2,16.7,30.00,North,5,0.1,2.3,90,0.00,BKN,,0.00,WeatherDisplay:10.37,2013-03-17 05:10:00,
2013-03-17 01:15:00,19.7,17.2,30.00,North,360,0.0,0.0,90,0.00,BKN,,0.00,WeatherDisplay:10.37,2013-03-17 05:15:00,
2013-03-17 01:20:00,19.7,17.2,30.00,North,360,0.0,0.0,90,0.00,BKN,,0.00,WeatherDisplay:10.37,2013-03-17 05:20:00,
2013-03-17 01:25:00,19.7,17.2,30.01,North,5,0.2,0.0,90,0.00,BKN,,0.00,WeatherDisplay:10.37,2013-03-17 05:25:00,
2013-03-17 01:30:00,20.1,17.6,30.01,North,5,0.4,1.0,90,0.00,BKN,,0.00,WeatherDisplay:10.37,2013-03-17 05:30:00,
2013-03-17 01:35:00,20.7,18.2,30.01,North,360,1.6,3.5,90,0.00,BKN,,0.00,WeatherDisplay:10.37,2013-03-17 05:35:00,
2013-03-17 01:40:00,21.4,18.9,30.01,NW,311,0.7,3.5,90,0.00,BKN,,0.00,WeatherDisplay:10.37,2013-03-17 05:40:00,
2013-03-17 01:45:00,22.1,19.6,30.01,WSW,243,3.0,4.6,90,0.00,BKN,,0.00,WeatherDisplay:10.37,2013-03-17 05:45:00,
2013-03-17 01:50:00,22.4,19.9,30.02,WSW,242,1.6,2.3,90,0.00,BKN,,0.00,WeatherDisplay:10.37,2013-03-17 05:50:00,
2013-03-17 01:56:00,22.7,19.9,30.02,WSW,242,0.4,2.3,89,0.00,BKN,,0.00,WeatherDisplay:10.37,2013-03-17 05:56:00,
2013-03-17 02:01:00,22.9,20.1,30.01,WSW,242,2.1,3.5,89,0.00,BKN,,0.00,WeatherDisplay:10.37,2013-03-17 06:01:00,
2013-03-17 02:06:00,23.2,20.2,30.01,WSW,242,1.3,3.5,88,0.00,OVC,,0.00,WeatherDisplay:10.37,2013-03-17 06:06:00,
2013-03-17 02:11:00,23.3,20.0,30.02,WSW,242,0.4,2.3,87,0.00,OVC,,0.00,WeatherDisplay:10.37,2013-03-17 06:11:00,
2013-03-17 02:16:00,23.5,20.2,30.02,WSW,242,0.2,2.3,87,0.00,OVC,,0.00,WeatherDisplay:10.37,2013-03-17 06:16:00,
2013-03-17 02:21:00,23.7,20.4,30.01,WSW,242,0.1,0.0,87,0.00,OVC,,0.00,WeatherDisplay:10.37,2013-03-17 06:21:00,
2013-03-17 02:26:00,23.7,20.1,30.01,WSW,242,0.0,0.0,86,0.00,OVC,,0.00,WeatherDisplay:10.37,2013-03-17 06:26:00,
2013-03-17 02:31:00,23.7,20.1,30.01,WSW,242,0.0,0.0,86,0.00,OVC,,0.00,WeatherDisplay:10.37,2013-03-17 06:31:00,
2013-03-17 02:36:00,23.6,19.8,30.01,WSW,242,0.0,0.0,85,0.00,OVC,,0.00,WeatherDisplay:10.37,2013-03-17 06:36:00,
2013-03-17 02:41:00,23.6,19.8,30.01,WSW,242,0.4,2.3,85,0.00,OVC,,0.00,WeatherDisplay:10.37,2013-03-17 06:41:00,
2013-03-17 02:46:00,23.7,19.9,30.02,WSW,244,1.5,3.5,85,0.00,OVC,,0.00,WeatherDisplay:10.37,2013-03-17 06:46:00,
2013-03-17 02:51:00,23.8,19.9,30.01,WSW,245,1.6,3.5,85,0.00,OVC,,0.00,WeatherDisplay:10.37,2013-03-17 06:51:00,
2013-03-17 02:56:00,24.0,19.9,30.02,WSW,247,1.4,2.3,84,0.00,OVC,,0.00,WeatherDisplay:10.37,2013-03-17 06:56:00,
2013-03-17 03:02:00,24.2,20.1,30.01,WNW,288,3.9,4.6,84,0.00,-SN,,0.00,WeatherDisplay:10.37,2013-03-17 07:02:00,
2013-03-17 03:07:00,24.4,20.5,30.02,WNW,286,2.2,6.9,85,0.00,-SN,,0.00,WeatherDisplay:10.37,2013-03-17 07:07:00,
2013-03-17 03:12:00,24.5,20.6,30.02,West,266,5.6,10.4,85,0.00,-SN,,0.00,WeatherDisplay:10.37,2013-03-17 07:12:00,
2013-03-17 03:17:00,24.5,20.6,30.02,WNW,288,1.4,3.5,85,0.00,-SN,,0.00,WeatherDisplay:10.37,2013-03-17 07:17:00,
2013-03-17 03:22:00,24.6,20.7,30.02,WNW,288,3.4,4.6,85,0.00,-SN,,0.00,WeatherDisplay:10.37,2013-03-17 07:22:00,
2013-03-17 03:27:00,24.6,20.7,30.02,WSW,250,4.6,5.8,85,0.00,-SN,,0.00,WeatherDisplay:10.37,2013-03-17 07:27:00,
2013-03-17 03:32:00,24.7,20.8,30.02,West,265,5.0,6.0,85,0.00,-SN,,0.00,WeatherDisplay:10.37,2013-03-17 07:32:00,
2013-03-17 03:37:00,24.7,20.8,30.02,West,267,3.0,7.0,85,0.00,-SN,,0.00,WeatherDisplay:10.37,2013-03-17 07:37:00,
2013-03-17 03:42:00,24.7,21.1,30.02,West,273,3.0,5.0,86,0.00,-SN,,0.00,WeatherDisplay:10.37,2013-03-17 07:42:00,
2013-03-17 03:47:00,24.8,21.2,30.02,West,272,3.0,6.0,86,0.00,-SN,,0.00,WeatherDisplay:10.37,2013-03-17 07:47:00,
2013-03-17 03:52:00,24.8,21.2,30.02,West,266,4.7,8.1,86,0.00,OVC,,0.00,WeatherDisplay:10.37,2013-03-17 07:52:00,
2013-03-17 03:57:00,24.9,21.3,30.02,West,268,3.3,4.0,86,0.00,OVC,,0.00,WeatherDisplay:10.37,2013-03-17 07:57:00,
2013-03-17 04:02:00,24.9,21.3,30.02,West,266,2.2,3.5,86,0.00,OVC,,0.00,WeatherDisplay:10.37,2013-03-17 08:02:00,
2013-03-17 04:07:00,24.9,21.3,30.02,WNW,288,3.5,4.6,86,0.00,OVC,,0.00,WeatherDisplay:10.37,2013-03-17 08:07:00,
2013-03-17 04:12:00,24.8,21.2,30.02,WNW,288,3.0,4.6,86,0.00,OVC,,0.00,WeatherDisplay:10.37,2013-03-17 08:12:00,
2013-03-17 04:17:00,24.8,21.2,30.02,WNW,287,5.2,6.9,86,0.00,OVC,,0.00,WeatherDisplay:10.37,2013-03-17 08:17:00,
2013-03-17 04:22:00,24.8,21.2,30.02,WNW,285,4.0,5.8,86,0.00,OVC,,0.00,WeatherDisplay:10.37,2013-03-17 08:22:00,
2013-03-17 04:27:00,24.8,21.2,30.02,WNW,283,4.9,8.1,86,0.00,OVC,,0.00,WeatherDisplay:10.37,2013-03-17 08:27:00,
2013-03-17 04:32:00,24.8,21.2,30.02,WNW,286,3.9,6.9,86,0.00,OVC,,0.00,WeatherDisplay:10.37,2013-03-17 08:32:00,
2013-03-17 04:38:00,24.8,21.2,30.03,WNW,292,4.0,5.8,86,0.00,OVC,,0.00,WeatherDisplay:10.37,2013-03-17 08:38:00,
2013-03-17 04:43:00,24.8,21.2,30.03,WNW,292,4.0,5.8,86,0.00,OVC,,0.00,WeatherDisplay:10.37,2013-03-17 08:43:00,
2013-03-17 04:48:00,24.8,21.2,30.03,WNW,299,3.6,6.0,86,0.00,OVC,,0.00,WeatherDisplay:10.37,2013-03-17 08:48:00,
2013-03-17 04:53:00,24.8,21.2,30.04,WNW,292,3.6,4.6,86,0.00,-SN,,0.00,WeatherDisplay:10.37,2013-03-17 08:53:00,
2013-03-17 04:58:00,24.8,21.5,30.04,NW,304,3.1,5.8,87,0.00,-SN,,0.00,WeatherDisplay:10.37,2013-03-17 08:58:00,
2013-03-17 05:03:00,24.8,21.5,30.04,WNW,294,4.8,8.1,87,0.00,-SN,,0.00,WeatherDisplay:10.37,2013-03-17 09:03:00,
2013-03-17 05:08:00,24.8,21.5,30.04,WNW,300,4.5,6.0,87,0.00,-SN,,0.00,WeatherDisplay:10.37,2013-03-17 09:08:00,
2013-03-17 05:13:00,24.7,21.1,30.04,NW,316,1.7,4.6,86,0.00,-SN,,0.00,WeatherDisplay:10.37,2013-03-17 09:13:00,
2013-03-17 05:18:00,24.6,21.0,30.05,NW,309,3.9,7.0,86,0.00,-SN,,0.00,WeatherDisplay:10.37,2013-03-17 09:18:00,
2013-03-17 05:23:00,24.5,20.9,30.05,NW,319,2.8,3.5,86,0.00,-SN,,0.00,WeatherDisplay:10.37,2013-03-17 09:23:00,
2013-03-17 05:28:00,24.4,20.8,30.05,NW,308,2.9,6.9,86,0.00,-SN,,0.00,WeatherDisplay:10.37,2013-03-17 09:28:00,
2013-03-17 05:33:00,24.3,20.7,30.05,NW,316,4.0,5.8,86,0.00,-SN,,0.00,WeatherDisplay:10.37,2013-03-17 09:33:00,
2013-03-17 05:38:00,24.2,20.6,30.06,NW,323,3.8,9.2,86,0.00,-SN,,0.00,WeatherDisplay:10.37,2013-03-17 09:38:00,
2013-03-17 05:43:00,24.0,20.4,30.06,NW,311,2.5,6.9,86,0.00,-SN,,0.00,WeatherDisplay:10.37,2013-03-17 09:43:00,
2013-03-17 05:48:00,23.9,20.3,30.06,NW,315,2.5,4.6,86,0.00,-SN,,0.00,WeatherDisplay:10.37,2013-03-17 09:48:00,
2013-03-17 05:53:00,23.8,20.2,30.06,NW,318,0.4,2.3,86,0.00,-SN,,0.00,WeatherDisplay:10.37,2013-03-17 09:53:00,
2013-03-17 05:58:00,23.7,20.1,30.05,NNW,338,2.9,4.6,86,0.00,-SN,,0.00,WeatherDisplay:10.37,2013-03-17 09:58:00,
2013-03-17 06:03:00,23.5,19.9,30.05,NNW,340,2.1,3.5,86,0.00,-SN,,0.00,WeatherDisplay:10.37,2013-03-17 10:03:00,
2013-03-17 06:08:00,23.4,19.8,30.06,NNW,339,0.4,3.5,86,0.00,-SN,,0.00,WeatherDisplay:10.37,2013-03-17 10:08:00,
2013-03-17 06:13:00,23.3,19.7,30.06,NNW,339,1.4,3.5,86,0.00,-SN,,0.00,WeatherDisplay:10.37,2013-03-17 10:13:00,
2013-03-17 06:18:00,23.2,19.6,30.06,NNW,338,0.0,0.0,86,0.00,-SN,,0.00,WeatherDisplay:10.37,2013-03-17 10:18:00,
2013-03-17 06:23:00,23.1,19.8,30.06,NNW,339,0.0,0.0,87,0.00,-SN,,0.00,WeatherDisplay:10.37,2013-03-17 10:23:00,
2013-03-17 06:28:00,23.1,19.8,30.07,NNW,338,0.0,0.0,87,0.00,-SN,,0.00,WeatherDisplay:10.37,2013-03-17 10:28:00,
2013-03-17 06:33:00,23.0,19.7,30.07,NNW,338,0.0,0.0,87,0.00,-SN,,0.00,WeatherDisplay:10.37,2013-03-17 10:33:00,
2013-03-17 06:38:00,22.9,19.6,30.07,NNW,339,0.8,3.5,87,0.00,-SN,,0.00,WeatherDisplay:10.37,2013-03-17 10:38:00,
2013-03-17 06:43:00,22.9,19.6,30.08,NNW,339,0.0,0.0,87,0.00,-SN,,0.00,WeatherDisplay:10.37,2013-03-17 10:43:00,
2013-03-17 06:48:00,22.9,19.6,30.07,NNW,338,0.0,0.0,87,0.00,-SN,,0.00,WeatherDisplay:10.37,2013-03-17 10:48:00,
2013-03-17 06:53:00,22.8,19.5,30.08,NNW,339,0.0,0.0,87,0.00,-SN,,0.00,WeatherDisplay:10.37,2013-03-17 10:53:00,
2013-03-17 06:58:00,22.7,19.4,30.08,NNW,338,0.0,0.0,87,0.00,-SN,,0.00,WeatherDisplay:10.37,2013-03-17 10:58:00,
2013-03-17 07:03:00,22.5,19.2,30.08,NNW,339,0.0,0.0,87,0.00,BKN,,0.00,WeatherDisplay:10.37,2013-03-17 11:03:00,
2013-03-17 07:08:00,22.1,18.8,30.09,NNW,338,0.0,0.0,87,0.00,BKN,,0.00,WeatherDisplay:10.37,2013-03-17 11:08:00,
2013-03-17 07:13:00,21.6,18.1,30.09,NNW,339,0.0,0.0,86,0.00,SCT,,0.00,WeatherDisplay:10.37,2013-03-17 11:13:00,
2013-03-17 07:18:00,21.2,17.7,30.09,NNW,339,0.0,0.0,86,0.00,SCT,,0.00,WeatherDisplay:10.37,2013-03-17 11:18:00,
2013-03-17 07:23:00,20.7,17.2,30.10,NNW,339,0.0,0.0,86,0.00,SCT,,0.00,WeatherDisplay:10.37,2013-03-17 11:23:00,
2013-03-17 07:29:00,20.3,16.8,30.10,NNW,339,0.0,0.0,86,0.00,SCT,,0.00,WeatherDisplay:10.37,2013-03-17 11:29:00,
2013-03-17 07:33:00,19.8,16.3,30.10,NNW,338,0.0,0.0,86,0.00,SCT,,0.00,WeatherDisplay:10.37,2013-03-17 11:33:00,
2013-03-17 07:39:00,19.7,16.5,30.10,NNW,339,0.0,0.0,87,0.00,SCT,,0.00,WeatherDisplay:10.37,2013-03-17 11:39:00,
2013-03-17 07:44:00,19.3,16.1,30.11,NNW,339,0.0,0.0,87,0.00,SCT,,0.00,WeatherDisplay:10.37,2013-03-17 11:44:00,
2013-03-17 07:49:00,19.1,15.9,30.11,NNW,338,0.0,0.0,87,0.00,SCT,,0.00,WeatherDisplay:10.37,2013-03-17 11:49:00,
2013-03-17 07:54:00,19.0,15.8,30.11,NNW,339,0.0,0.0,87,0.00,SCT,,0.00,WeatherDisplay:10.37,2013-03-17 11:54:00,
2013-03-17 07:59:00,19.2,16.2,30.11,NNW,339,0.0,0.0,88,0.00,SCT,,0.00,WeatherDisplay:10.37,2013-03-17 11:59:00,
2013-03-17 08:04:00,19.4,16.4,30.11,NNW,338,0.0,0.0,88,0.00,SCT,,0.00,WeatherDisplay:10.37,2013-03-17 12:04:00,
2013-03-17 08:09:00,19.7,17.0,30.11,NNW,339,0.0,0.0,89,0.00,SCT,,0.00,WeatherDisplay:10.37,2013-03-17 12:09:00,
2013-03-17 08:14:00,19.9,17.2,30.12,NNW,339,0.0,0.0,89,0.00,SCT,,0.00,WeatherDisplay:10.37,2013-03-17 12:14:00,
2013-03-17 08:19:00,20.3,17.6,30.12,NNW,338,0.2,1.2,89,0.00,SCT,,0.00,WeatherDisplay:10.37,2013-03-17 12:19:00,
2013-03-17 08:24:00,20.7,18.0,30.12,NNW,339,0.8,2.3,89,0.00,SCT,,0.00,WeatherDisplay:10.37,2013-03-17 12:24:00,
2013-03-17 08:29:00,21.7,19.2,30.13,NNW,331,2.0,3.0,90,0.00,SCT,,0.00,WeatherDisplay:10.37,2013-03-17 12:29:00,
2013-03-17 08:34:00,22.7,20.2,30.13,NW,326,2.9,4.6,90,0.00,SCT,,0.00,WeatherDisplay:10.37,2013-03-17 12:34:00,
2013-03-17 08:39:00,23.3,20.8,30.13,NW,322,2.4,3.5,90,0.00,SCT,,0.00,WeatherDisplay:10.37,2013-03-17 12:39:00,
2013-03-17 08:44:00,23.6,20.8,30.14,NW,308,1.8,4.6,89,0.00,SCT,,0.00,WeatherDisplay:10.37,2013-03-17 12:44:00,
2013-03-17 08:49:00,24.0,21.2,30.14,West,273,4.5,5.8,89,0.00,SCT,,0.00,WeatherDisplay:10.37,2013-03-17 12:49:00,
2013-03-17 08:54:00,24.2,21.2,30.14,West,266,4.4,6.9,88,0.00,SCT,,0.00,WeatherDisplay:10.37,2013-03-17 12:54:00,
2013-03-17 08:59:00,24.5,20.9,30.14,WSW,254,6.1,9.2,86,0.00,SCT,,0.00,WeatherDisplay:10.37,2013-03-17 12:59:00,
2013-03-17 09:04:00,24.7,20.8,30.14,West,268,4.6,5.8,85,0.00,SCT,,0.00,WeatherDisplay:10.37,2013-03-17 13:04:00,
2013-03-17 09:09:00,24.9,20.8,30.15,SW,236,5.6,9.2,84,0.00,SCT,,0.00,WeatherDisplay:10.37,2013-03-17 13:09:00,
2013-03-17 09:14:00,25.1,20.7,30.15,WNW,299,5.8,9.2,83,0.00,SCT,,0.00,WeatherDisplay:10.37,2013-03-17 13:14:00,
2013-03-17 09:19:00,25.2,20.5,30.15,West,271,4.5,9.2,82,0.00,SCT,,0.00,WeatherDisplay:10.37,2013-03-17 13:19:00,
2013-03-17 09:24:00,25.4,20.4,30.15,WNW,286,4.6,9.2,81,0.00,SCT,,0.00,WeatherDisplay:10.37,2013-03-17 13:24:00,
2013-03-17 09:29:00,25.8,20.5,30.15,WNW,290,8.1,10.4,80,0.00,SCT,,0.00,WeatherDisplay:10.37,2013-03-17 13:29:00,
2013-03-17 09:34:00,26.0,20.4,30.16,West,279,7.0,10.4,79,0.00,SCT,,0.00,WeatherDisplay:10.37,2013-03-17 13:34:00,
2013-03-17 09:39:00,26.2,20.6,30.16,West,280,8.0,13.0,79,0.00,SCT,,0.00,WeatherDisplay:10.37,2013-03-17 13:39:00,
2013-03-17 09:44:00,26.4,20.5,30.16,West,269,6.7,11.5,78,0.00,SCT,,0.00,WeatherDisplay:10.37,2013-03-17 13:44:00,
2013-03-17 09:49:00,26.5,20.6,30.16,West,266,8.0,10.0,78,0.00,SCT,,0.00,WeatherDisplay:10.37,2013-03-17 13:49:00,
2013-03-17 09:54:00,26.6,20.4,30.16,WNW,299,4.7,6.9,77,0.00,SCT,,0.00,WeatherDisplay:10.37,2013-03-17 13:54:00,
2013-03-17 09:59:00,26.8,20.6,30.16,NW,325,4.2,8.1,77,0.00,SCT,,0.00,WeatherDisplay:10.37,2013-03-17 13:59:00,
2013-03-17 10:04:00,26.7,19.8,30.16,West,267,7.7,11.5,75,0.00,SCT,,0.00,WeatherDisplay:10.37,2013-03-17 14:04:00,
2013-03-17 10:09:00,26.9,20.3,30.16,WNW,294,4.3,5.8,76,0.00,SCT,,0.00,WeatherDisplay:10.37,2013-03-17 14:09:00,
2013-03-17 10:14:00,27.3,20.4,30.17,NW,314,2.1,4.6,75,0.00,SCT,,0.00,WeatherDisplay:10.37,2013-03-17 14:14:00,
2013-03-17 10:19:00,27.7,20.5,30.17,NW,311,6.3,9.2,74,0.00,SCT,,0.00,WeatherDisplay:10.37,2013-03-17 14:19:00,
2013-03-17 10:24:00,27.6,20.4,30.17,West,267,5.8,10.4,74,0.00,SCT,,0.00,WeatherDisplay:10.37,2013-03-17 14:24:00,
2013-03-17 10:29:00,27.5,19.7,30.17,NW,304,2.4,5.8,72,0.00,SCT,,0.00,WeatherDisplay:10.37,2013-03-17 14:29:00,
2013-03-17 10:34:00,27.7,19.8,30.18,WNW,301,5.3,9.2,72,0.00,SCT,,0.00,WeatherDisplay:10.37,2013-03-17 14:34:00,
2013-03-17 10:39:00,27.6,19.4,30.18,NW,314,6.1,11.5,71,0.00,SCT,,0.00,WeatherDisplay:10.37,2013-03-17 14:39:00,
2013-03-17 10:44:00,27.6,19.4,30.18,WNW,289,9.0,12.7,71,0.00,SCT,,0.00,WeatherDisplay:10.37,2013-03-17 14:44:00,
2013-03-17 10:49:00,27.7,18.5,30.18,WNW,292,5.1,6.9,68,0.00,SCT,,0.00,WeatherDisplay:10.37,2013-03-17 14:49:00,
2013-03-17 10:54:00,28.1,18.9,30.18,NNW,327,5.5,11.5,68,0.00,SCT,,0.00,WeatherDisplay:10.37,2013-03-17 14:54:00,
2013-03-17 10:59:00,28.7,19.8,30.18,NW,308,3.2,4.6,69,0.00,SCT,,0.00,WeatherDisplay:10.37,2013-03-17 14:59:00,
2013-03-17 11:04:00,28.6,19.0,30.18,WNW,303,9.6,12.7,67,0.00,BKN,,0.00,WeatherDisplay:10.37,2013-03-17 15:04:00,
2013-03-17 11:09:00,28.1,18.5,30.18,NNW,331,4.3,9.2,67,0.00,BKN,,0.00,WeatherDisplay:10.37,2013-03-17 15:09:00,
2013-03-17 11:14:00,28.3,18.7,30.19,WNW,292,8.5,11.5,67,0.00,BKN,,0.00,WeatherDisplay:10.37,2013-03-17 15:14:00,
2013-03-17 11:19:00,28.6,19.4,30.19,NNW,340,4.7,8.1,68,0.00,BKN,,0.00,WeatherDisplay:10.37,2013-03-17 15:19:00,
2013-03-17 11:24:00,28.4,18.8,30.20,WNW,288,7.9,13.8,67,0.00,BKN,,0.00,WeatherDisplay:10.37,2013-03-17 15:24:00,
2013-03-17 11:29:00,28.0,18.5,30.20,NW,321,4.1,6.9,67,0.00,BKN,,0.00,WeatherDisplay:10.37,2013-03-17 15:29:00,
2013-03-17 11:34:00,28.7,20.1,30.20,NNW,336,2.5,6.0,70,0.00,BKN,,0.00,WeatherDisplay:10.37,2013-03-17 15:34:00,
2013-03-17 11:39:00,29.1,19.8,30.20,NNW,336,7.2,16.1,68,0.00,BKN,,0.00,WeatherDisplay:10.37,2013-03-17 15:39:00,
2013-03-17 11:44:00,28.3,19.4,30.20,NNW,334,3.8,9.2,69,0.00,BKN,,0.00,WeatherDisplay:10.37,2013-03-17 15:44:00,
2013-03-17 11:49:00,27.9,19.4,30.21,WNW,300,10.0,12.7,70,0.00,BKN,,0.00,WeatherDisplay:10.37,2013-03-17 15:49:00,
2013-03-17 11:54:00,27.3,18.8,30.21,NW,306,8.8,11.5,70,0.00,BKN,,0.00,WeatherDisplay:10.37,2013-03-17 15:54:00,
2013-03-17 11:59:00,27.6,19.8,30.21,NW,304,10.3,13.0,72,0.00,BKN,,0.00,WeatherDisplay:10.37,2013-03-17 15:59:00,
2013-03-17 12:04:00,27.9,19.0,30.21,NW,326,8.0,12.7,69,0.00,BKN,,0.00,WeatherDisplay:10.37,2013-03-17 16:04:00,
2013-03-17 12:09:00,28.4,19.5,30.22,NNW,344,7.0,10.4,69,0.00,BKN,,0.00,WeatherDisplay:10.37,2013-03-17 16:09:00,
2013-03-17 12:14:00,28.7,19.8,30.22,WNW,292,7.3,13.8,69,0.00,BKN,,0.00,WeatherDisplay:10.37,2013-03-17 16:14:00,
2013-03-17 12:19:00,28.5,20.0,30.22,NNW,329,9.0,13.8,70,0.00,BKN,,0.00,WeatherDisplay:10.37,2013-03-17 16:19:00,
2013-03-17 12:24:00,28.0,20.1,30.22,NNW,342,5.9,10.4,72,0.00,BKN,,0.00,WeatherDisplay:10.37,2013-03-17 16:24:00,
2013-03-17 12:30:00,28.3,20.7,30.22,NNW,332,5.4,10.4,73,0.00,BKN,,0.00,WeatherDisplay:10.37,2013-03-17 16:30:00,
2013-03-17 12:35:00,29.0,21.4,30.22,North,10,4.4,6.9,73,0.00,BKN,,0.00,WeatherDisplay:10.37,2013-03-17 16:35:00,
2013-03-17 12:40:00,29.3,20.7,30.23,NW,318,6.0,11.5,70,0.00,BKN,,0.00,WeatherDisplay:10.37,2013-03-17 16:40:00,
2013-03-17 12:45:00,28.5,19.3,30.23,NNW,330,4.7,11.5,68,0.00,BKN,,0.00,WeatherDisplay:10.37,2013-03-17 16:45:00,
2013-03-17 12:50:00,28.4,19.5,30.23,NNE,22,4.2,8.1,69,0.00,BKN,,0.00,WeatherDisplay:10.37,2013-03-17 16:50:00,
2013-03-17 12:55:00,28.8,19.2,30.23,North,349,3.9,8.1,67,0.00,BKN,,0.00,WeatherDisplay:10.37,2013-03-17 16:55:00,
2013-03-17 13:00:00,29.2,19.9,30.23,North,355,10.3,11.5,68,0.00,BKN,,0.00,WeatherDisplay:10.37,2013-03-17 17:00:00,
2013-03-17 13:05:00,29.0,19.1,30.22,NNE,12,5.7,11.5,66,0.00,OVC,,0.00,WeatherDisplay:10.37,2013-03-17 17:05:00,
2013-03-17 13:10:00,28.5,18.6,30.23,NNE,22,7.2,11.5,66,0.00,OVC,,0.00,WeatherDisplay:10.37,2013-03-17 17:10:00,
2013-03-17 13:15:00,28.3,18.7,30.23,NE,34,6.8,12.7,67,0.00,OVC,,0.00,WeatherDisplay:10.37,2013-03-17 17:15:00,
2013-03-17 13:20:00,28.6,19.4,30.24,NW,314,2.5,4.6,68,0.00,OVC,,0.00,WeatherDisplay:10.37,2013-03-17 17:20:00,
2013-03-17 13:25:00,28.6,19.0,30.24,NNE,21,7.5,12.7,67,0.00,OVC,,0.00,WeatherDisplay:10.37,2013-03-17 17:25:00,
2013-03-17 13:30:00,28.3,18.7,30.24,NE,34,7.5,10.4,67,0.00,OVC,,0.00,WeatherDisplay:10.37,2013-03-17 17:30:00,
2013-03-17 13:35:00,28.4,19.2,30.24,NNE,29,6.2,10.4,68,0.00,OVC,,0.00,WeatherDisplay:10.37,2013-03-17 17:35:00,
2013-03-17 13:40:00,28.1,18.2,30.24,NNE,33,5.7,6.9,66,0.00,OVC,,0.00,WeatherDisplay:10.37,2013-03-17 17:40:00,
2013-03-17 13:45:00,28.5,19.3,30.24,NNW,344,3.6,5.8,68,0.00,OVC,,0.00,WeatherDisplay:10.37,2013-03-17 17:45:00,
2013-03-17 13:50:00,28.8,18.9,30.24,NNE,15,6.7,11.5,66,0.00,OVC,,0.00,WeatherDisplay:10.37,2013-03-17 17:50:00,
2013-03-17 13:55:00,28.6,18.3,30.24,NNE,18,5.4,6.9,65,0.00,OVC,,0.00,WeatherDisplay:10.37,2013-03-17 17:55:00,
2013-03-17 14:00:00,28.9,19.3,30.24,NNE,15,5.0,10.4,67,0.00,OVC,,0.00,WeatherDisplay:10.37,2013-03-17 18:00:00,
2013-03-17 14:05:00,29.3,19.3,30.24,NNW,341,3.2,5.8,66,0.00,BKN,,0.00,WeatherDisplay:10.37,2013-03-17 18:05:00,
2013-03-17 14:10:00,29.3,18.6,30.24,NNW,339,7.2,13.8,64,0.00,BKN,,0.00,WeatherDisplay:10.37,2013-03-17 18:10:00,
2013-03-17 14:15:00,29.0,18.0,30.24,NNE,28,6.6,10.4,63,0.00,BKN,,0.00,WeatherDisplay:10.37,2013-03-17 18:15:00,
2013-03-17 14:20:00,28.8,18.1,30.24,NW,321,3.9,6.9,64,0.00,BKN,,0.00,WeatherDisplay:10.37,2013-03-17 18:20:00,
2013-03-17 14:25:00,28.6,17.6,30.24,North,5,3.0,5.8,63,0.00,BKN,,0.00,WeatherDisplay:10.37,2013-03-17 18:25:00,
2013-03-17 14:30:00,28.4,17.0,30.24,NNW,343,3.4,6.9,62,0.00,BKN,,0.00,WeatherDisplay:10.37,2013-03-17 18:30:00,
2013-03-17 14:35:00,28.5,17.5,30.24,NNW,341,4.2,9.2,63,0.00,BKN,,0.00,WeatherDisplay:10.37,2013-03-17 18:35:00,
2013-03-17 14:40:00,28.2,16.8,30.23,NNE,20,5.8,8.1,62,0.00,BKN,,0.00,WeatherDisplay:10.37,2013-03-17 18:40:00,
2013-03-17 14:45:00,28.1,17.1,30.23,NNE,13,8.0,11.5,63,0.00,BKN,,0.00,WeatherDisplay:10.37,2013-03-17 18:45:00,
2013-03-17 14:50:00,28.0,16.6,30.23,NNE,19,2.2,4.6,62,0.00,BKN,,0.00,WeatherDisplay:10.37,2013-03-17 18:50:00,
2013-03-17 14:55:00,28.7,17.7,30.23,West,260,6.6,11.5,63,0.00,BKN,,0.00,WeatherDisplay:10.37,2013-03-17 18:55:00,
2013-03-17 15:00:00,29.1,17.7,30.23,North,355,6.8,9.2,62,0.00,BKN,,0.00,WeatherDisplay:10.37,2013-03-17 19:00:00,
2013-03-17 15:05:00,29.4,18.0,30.23,NNE,28,2.7,4.6,62,0.00,SCT,,0.00,WeatherDisplay:10.37,2013-03-17 19:05:00,
2013-03-17 15:10:00,29.4,17.6,30.24,NNW,340,6.3,8.1,61,0.00,SCT,,0.00,WeatherDisplay:10.37,2013-03-17 19:10:00,
2013-03-17 15:15:00,29.7,17.5,30.23,NE,36,6.0,9.2,60,0.00,SCT,,0.00,WeatherDisplay:10.37,2013-03-17 19:15:00,
2013-03-17 15:20:00,29.0,15.7,30.23,NNE,17,5.1,9.2,57,0.00,SCT,,0.00,WeatherDisplay:10.37,2013-03-17 19:20:00,
2013-03-17 15:25:00,28.5,16.4,30.23,NNE,13,4.9,5.8,60,0.00,SCT,,0.00,WeatherDisplay:10.37,2013-03-17 19:25:00,
2013-03-17 15:31:00,28.7,16.6,30.23,North,350,5.7,11.5,60,0.00,SCT,,0.00,WeatherDisplay:10.37,2013-03-17 19:31:00,
2013-03-17 15:36:00,28.9,16.4,30.23,NNW,336,4.6,8.1,59,0.00,SCT,,0.00,WeatherDisplay:10.37,2013-03-17 19:36:00,
2013-03-17 15:41:00,29.1,16.9,30.24,NNW,335,7.6,9.2,60,0.00,SCT,,0.00,WeatherDisplay:10.37,2013-03-17 19:41:00,
2013-03-17 15:46:00,29.2,16.2,30.23,NNW,341,3.2,10.4,58,0.00,SCT,,0.00,WeatherDisplay:10.37,2013-03-17 19:46:00,
2013-03-17 15:51:00,29.3,15.9,30.23,NE,36,5.0,6.9,57,0.00,SCT,,0.00,WeatherDisplay:10.37,2013-03-17 19:51:00,
2013-03-17 15:56:00,29.4,16.8,30.23,NW,322,8.1,8.1,59,0.00,SCT,,0.00,WeatherDisplay:10.37,2013-03-17 19:56:00,
2013-03-17 16:01:00,29.4,16.4,30.24,NNE,13,7.6,15.0,58,0.00,SCT,,0.00,WeatherDisplay:10.37,2013-03-17 20:01:00,
2013-03-17 16:06:00,29.4,15.6,30.24,NNW,348,5.0,5.0,56,0.00,SCT,,0.00,WeatherDisplay:10.37,2013-03-17 20:06:00,
2013-03-17 16:11:00,29.6,16.2,30.23,NNW,336,5.8,8.1,57,0.00,SCT,,0.00,WeatherDisplay:10.37,2013-03-17 20:11:00,
2013-03-17 16:16:00,29.4,15.6,30.24,NNE,13,5.9,9.2,56,0.00,SCT,,0.00,WeatherDisplay:10.37,2013-03-17 20:16:00,
2013-03-17 16:22:00,29.2,15.0,30.24,WNW,300,5.2,6.9,55,0.00,SCT,,0.00,WeatherDisplay:10.37,2013-03-17 20:22:00,
2013-03-17 16:27:00,29.1,14.5,30.24,NW,310,7.0,11.0,54,0.00,SCT,,0.00,WeatherDisplay:10.37,2013-03-17 20:27:00,
2013-03-17 16:32:00,28.9,14.4,30.24,NW,310,6.0,7.0,54,0.00,SCT,,0.00,WeatherDisplay:10.37,2013-03-17 20:32:00,
2013-03-17 16:37:00,29.0,14.0,30.24,NE,36,6.4,6.9,53,0.00,SCT,,0.00,WeatherDisplay:10.37,2013-03-17 20:37:00,
2013-03-17 16:42:00,28.7,13.7,30.25,NNE,27,4.4,9.2,53,0.00,SCT,,0.00,WeatherDisplay:10.37,2013-03-17 20:42:00,
2013-03-17 16:47:00,28.9,13.9,30.24,NNE,28,5.0,8.1,53,0.00,SCT,,0.00,WeatherDisplay:10.37,2013-03-17 20:47:00,
2013-03-17 16:52:00,28.8,13.4,30.24,NE,40,3.4,6.9,52,0.00,SCT,,0.00,WeatherDisplay:10.37,2013-03-17 20:52:00,
2013-03-17 16:57:00,28.7,14.1,30.24,NNE,24,5.0,6.0,54,0.00,SCT,,0.00,WeatherDisplay:10.37,2013-03-17 20:57:00,
2013-03-17 17:02:00,28.8,13.8,30.25,North,355,3.0,8.1,53,0.00,SCT,,0.00,WeatherDisplay:10.37,2013-03-17 21:02:00,
2013-03-17 17:07:00,28.9,13.9,30.25,North,11,5.3,10.4,53,0.00,SCT,,0.00,WeatherDisplay:10.37,2013-03-17 21:07:00,
2013-03-17 17:12:00,28.9,13.9,30.25,NNE,12,4.2,4.6,53,0.00,SCT,,0.00,WeatherDisplay:10.37,2013-03-17 21:12:00,
2013-03-17 17:17:00,28.8,13.8,30.25,NNE,24,4.5,8.1,53,0.00,SCT,,0.00,WeatherDisplay:10.37,2013-03-17 21:17:00,
2013-03-17 17:22:00,29.0,14.4,30.25,NNW,330,5.1,9.2,54,0.00,SCT,,0.00,WeatherDisplay:10.37,2013-03-17 21:22:00,
2013-03-17 17:27:00,29.1,14.1,30.25,NNE,19,5.2,9.2,53,0.00,SCT,,0.00,WeatherDisplay:10.37,2013-03-17 21:27:00,
2013-03-17 17:32:00,28.8,13.4,30.26,NW,322,3.5,4.6,52,0.00,SCT,,0.00,WeatherDisplay:10.37,2013-03-17 21:32:00,
2013-03-17 17:38:00,28.7,13.7,30.25,North,355,4.3,9.2,53,0.00,SCT,,0.00,WeatherDisplay:10.37,2013-03-17 21:38:00,
2013-03-17 17:43:00,28.8,13.8,30.25,NNW,329,5.1,6.9,53,0.00,SCT,,0.00,WeatherDisplay:10.37,2013-03-17 21:43:00,
2013-03-17 17:48:00,28.8,12.9,30.26,WNW,289,4.0,8.1,51,0.00,SCT,,0.00,WeatherDisplay:10.37,2013-03-17 21:48:00,
2013-03-17 17:53:00,28.8,12.9,30.26,North,360,4.3,8.1,51,0.00,SCT,,0.00,WeatherDisplay:10.37,2013-03-17 21:53:00,
2013-03-17 17:58:00,28.5,12.2,30.26,NNW,336,5.1,6.9,50,0.00,SCT,,0.00,WeatherDisplay:10.37,2013-03-17 21:58:00,
2013-03-17 18:03:00,28.4,12.6,30.26,NNW,338,0.6,6.9,51,0.00,SCT,,0.00,WeatherDisplay:10.37,2013-03-17 22:03:00,
2013-03-17 18:08:00,28.3,12.0,30.26,NNW,331,4.4,7.0,50,0.00,SCT,,0.00,WeatherDisplay:10.37,2013-03-17 22:08:00,
2013-03-17 18:13:00,28.4,12.6,30.27,North,355,2.4,4.6,51,0.00,SCT,,0.00,WeatherDisplay:10.37,2013-03-17 22:13:00,
2013-03-17 18:18:00,28.4,12.1,30.26,NE,40,4.8,6.9,50,0.00,SCT,,0.00,WeatherDisplay:10.37,2013-03-17 22:18:00,
2013-03-17 18:23:00,28.1,11.4,30.27,NNW,348,3.7,3.7,49,0.00,SCT,,0.00,WeatherDisplay:10.37,2013-03-17 22:23:00,
2013-03-17 18:28:00,27.8,11.1,30.27,NE,37,3.4,4.6,49,0.00,SCT,,0.00,WeatherDisplay:10.37,2013-03-17 22:28:00,
2013-03-17 18:33:00,27.5,11.7,30.27,NNW,344,1.2,3.5,51,0.00,SCT,,0.00,WeatherDisplay:10.37,2013-03-17 22:33:00,
2013-03-17 18:38:00,27.5,11.3,30.27,NNW,338,1.3,3.5,50,0.00,SCT,,0.00,WeatherDisplay:10.37,2013-03-17 22:38:00,
2013-03-17 18:43:00,27.4,11.2,30.27,NW,326,2.0,4.0,50,0.00,SCT,,0.00,WeatherDisplay:10.37,2013-03-17 22:43:00,
2013-03-17 18:48:00,27.4,11.2,30.27,NNW,334,1.1,4.6,50,0.00,SCT,,0.00,WeatherDisplay:10.37,2013-03-17 22:48:00,
2013-03-17 18:53:00,27.3,11.1,30.27,NNE,15,3.6,4.6,50,0.00,SCT,,0.00,WeatherDisplay:10.37,2013-03-17 22:53:00,
2013-03-17 18:58:00,27.1,10.9,30.27,NNE,12,1.0,4.0,50,0.00,SCT,,0.00,WeatherDisplay:10.37,2013-03-17 22:58:00,
2013-03-17 19:03:00,26.8,10.6,30.27,NNE,15,1.3,3.5,50,0.00,FEW,,0.00,WeatherDisplay:10.37,2013-03-17 23:03:00,
2013-03-17 19:08:00,26.5,10.8,30.27,NNE,16,1.7,4.6,51,0.00,FEW,,0.00,WeatherDisplay:10.37,2013-03-17 23:08:00,
2013-03-17 19:13:00,26.2,10.9,30.27,NNE,16,1.7,4.6,52,0.00,FEW,,0.00,WeatherDisplay:10.37,2013-03-17 23:13:00,
2013-03-17 19:18:00,25.9,11.1,30.27,NNE,15,1.1,3.5,53,0.00,FEW,,0.00,WeatherDisplay:10.37,2013-03-17 23:18:00,
2013-03-17 19:23:00,25.7,10.9,30.28,NNE,16,0.3,1.2,53,0.00,FEW,,0.00,WeatherDisplay:10.37,2013-03-17 23:23:00,
2013-03-17 19:28:00,25.5,11.1,30.28,NNE,15,0.0,0.0,54,0.00,FEW,,0.00,WeatherDisplay:10.37,2013-03-17 23:28:00,
2013-03-17 19:33:00,25.2,11.3,30.28,NNE,16,0.2,2.3,55,0.00,FEW,,0.00,WeatherDisplay:10.37,2013-03-17 23:33:00,
2013-03-17 19:38:00,25.0,11.5,30.28,NNE,16,0.0,0.0,56,0.00,FEW,,0.00,WeatherDisplay:10.37,2013-03-17 23:38:00,
2013-03-17 19:43:00,24.7,11.6,30.29,NNE,16,0.0,0.0,57,0.00,FEW,,0.00,WeatherDisplay:10.37,2013-03-17 23:43:00,
2013-03-17 19:48:00,24.4,12.1,30.29,NNE,15,0.0,0.0,59,0.00,FEW,,0.00,WeatherDisplay:10.37,2013-03-17 23:48:00,
2013-03-17 19:53:00,24.1,12.6,30.29,NNE,16,0.0,0.0,61,0.00,FEW,,0.00,WeatherDisplay:10.37,2013-03-17 23:53:00,
2013-03-17 19:58:00,23.8,11.9,30.29,NNE,15,0.0,0.0,60,0.00,FEW,,0.00,WeatherDisplay:10.37,2013-03-17 23:58:00,
2013-03-17 20:03:00,23.6,12.5,30.29,NNE,16,0.0,0.0,62,0.00,FEW,,0.00,WeatherDisplay:10.37,2013-03-18 00:03:00,
2013-03-17 20:08:00,23.3,12.6,30.29,NNE,16,0.0,0.0,63,0.00,FEW,,0.00,WeatherDisplay:10.37,2013-03-18 00:08:00,
2013-03-17 20:13:00,23.0,12.6,30.29,NNE,16,0.0,0.0,64,0.00,FEW,,0.00,WeatherDisplay:10.37,2013-03-18 00:13:00,
2013-03-17 20:18:00,22.7,12.7,30.29,NNE,15,0.0,0.0,65,0.00,FEW,,0.00,WeatherDisplay:10.37,2013-03-18 00:18:00,
2013-03-17 20:23:00,22.4,12.4,30.29,NNE,16,0.2,1.2,65,0.00,FEW,,0.00,WeatherDisplay:10.37,2013-03-18 00:23:00,
2013-03-17 20:28:00,22.4,12.8,30.29,NNE,15,0.0,0.0,66,0.00,FEW,,0.00,WeatherDisplay:10.37,2013-03-18 00:28:00,
2013-03-17 20:33:00,22.2,13.2,30.29,NNE,16,0.0,0.0,68,0.00,FEW,,0.00,WeatherDisplay:10.37,2013-03-18 00:33:00,
2013-03-17 20:38:00,22.0,13.4,30.29,NNE,15,0.2,1.2,69,0.00,FEW,,0.00,WeatherDisplay:10.37,2013-03-18 00:38:00,
2013-03-17 20:43:00,21.9,13.0,30.29,NNE,16,1.0,3.5,68,0.00,FEW,,0.00,WeatherDisplay:10.37,2013-03-18 00:43:00,
2013-03-17 20:48:00,21.9,13.0,30.29,NNE,16,0.4,2.3,68,0.00,FEW,,0.00,WeatherDisplay:10.37,2013-03-18 00:48:00,
2013-03-17 20:53:00,21.8,12.9,30.29,NNE,15,0.9,2.3,68,0.00,FEW,,0.00,WeatherDisplay:10.37,2013-03-18 00:53:00,
2013-03-17 20:58:00,21.8,12.5,30.29,NNE,16,1.0,2.3,67,0.00,FEW,,0.00,WeatherDisplay:10.37,2013-03-18 00:58:00,
2013-03-17 21:03:00,21.9,12.3,30.29,NNE,15,0.1,0.0,66,0.00,FEW,,0.00,WeatherDisplay:10.37,2013-03-18 01:03:00,
2013-03-17 21:08:00,21.9,12.3,30.29,NNE,15,0.6,2.3,66,0.00,FEW,,0.00,WeatherDisplay:10.37,2013-03-18 01:08:00,
2013-03-17 21:13:00,21.8,12.9,30.29,NNE,16,0.0,0.0,68,0.00,FEW,,0.00,WeatherDisplay:10.37,2013-03-18 01:13:00,
2013-03-17 21:18:00,21.5,12.9,30.29,NNE,15,0.0,0.0,69,0.00,FEW,,0.00,WeatherDisplay:10.37,2013-03-18 01:18:00,
2013-03-17 21:23:00,21.1,12.5,30.30,NNE,15,0.0,0.0,69,0.00,FEW,,0.00,WeatherDisplay:10.37,2013-03-18 01:23:00,
2013-03-17 21:28:00,20.7,12.5,30.30,NNE,16,0.0,0.0,70,0.00,FEW,,0.00,WeatherDisplay:10.37,2013-03-18 01:28:00,
2013-03-17 21:33:00,20.4,12.5,30.30,NNE,16,0.0,0.0,71,0.00,FEW,,0.00,WeatherDisplay:10.37,2013-03-18 01:33:00,
2013-03-17 21:38:00,20.1,12.5,30.30,NNE,16,0.0,0.0,72,0.00,FEW,,0.00,WeatherDisplay:10.37,2013-03-18 01:38:00,
2013-03-17 21:43:00,19.7,12.1,30.31,NNE,16,0.0,0.0,72,0.00,FEW,,0.00,WeatherDisplay:10.37,2013-03-18 01:43:00,
2013-03-17 21:48:00,19.7,12.8,30.31,NNE,15,0.0,0.0,74,0.00,FEW,,0.00,WeatherDisplay:10.37,2013-03-18 01:48:00,
2013-03-17 21:53:00,19.6,13.0,30.31,NNE,15,0.0,0.0,75,0.00,FEW,,0.00,WeatherDisplay:10.37,2013-03-18 01:53:00,
2013-03-17 21:58:00,19.3,12.7,30.31,NNE,16,0.0,0.0,75,0.00,FEW,,0.00,WeatherDisplay:10.37,2013-03-18 01:58:00,
2013-03-17 22:03:00,19.0,12.7,30.31,NNE,15,0.0,0.0,76,0.00,FEW,,0.00,WeatherDisplay:10.37,2013-03-18 02:03:00,
2013-03-17 22:08:00,18.8,12.8,30.31,NNE,16,0.0,0.0,77,0.00,FEW,,0.00,WeatherDisplay:10.37,2013-03-18 02:08:00,
2013-03-17 22:13:00,18.7,13.0,30.31,NNE,16,0.0,0.0,78,0.00,FEW,,0.00,WeatherDisplay:10.37,2013-03-18 02:13:00,
2013-03-17 22:18:00,18.6,13.2,30.31,NNE,15,0.0,0.0,79,0.00,FEW,,0.00,WeatherDisplay:10.37,2013-03-18 02:18:00,
2013-03-17 22:23:00,18.6,13.2,30.32,NNE,15,0.0,0.0,79,0.00,FEW,,0.00,WeatherDisplay:10.37,2013-03-18 02:23:00,
2013-03-17 22:28:00,18.5,13.4,30.31,NNE,16,0.0,0.0,80,0.00,FEW,,0.00,WeatherDisplay:10.37,2013-03-18 02:28:00,
2013-03-17 22:33:00,18.4,13.5,30.31,NNE,15,0.0,0.0,81,0.00,FEW,,0.00,WeatherDisplay:10.37,2013-03-18 02:33:00,
2013-03-17 22:39:00,18.1,13.3,30.31,NNE,16,0.0,0.0,81,0.00,FEW,,0.00,WeatherDisplay:10.37,2013-03-18 02:39:00,
2013-03-17 22:44:00,18.0,13.2,30.31,NNE,16,0.0,0.0,81,0.00,FEW,,0.00,WeatherDisplay:10.37,2013-03-18 02:44:00,
2013-03-17 22:49:00,17.7,12.9,30.32,NNE,15,0.0,0.0,81,0.00,FEW,,0.00,WeatherDisplay:10.37,2013-03-18 02:49:00,
2013-03-17 22:54:00,17.6,13.0,30.32,NNE,16,0.0,0.0,82,0.00,FEW,,0.00,WeatherDisplay:10.37,2013-03-18 02:54:00,
2013-03-17 22:59:00,17.5,12.9,30.32,NNE,16,0.0,0.0,82,0.00,FEW,,0.00,WeatherDisplay:10.37,2013-03-18 02:59:00,
2013-03-17 23:04:00,17.5,13.2,30.32,NNE,15,0.0,0.0,83,0.00,CLR,,0.00,WeatherDisplay:10.37,2013-03-18 03:04:00,
2013-03-17 23:09:00,17.6,13.3,30.32,NNE,15,0.0,0.0,83,0.00,CLR,,0.00,WeatherDisplay:10.37,2013-03-18 03:09:00,
2013-03-17 23:14:00,17.6,13.3,30.32,NNE,16,0.0,0.0,83,0.00,CLR,,0.00,WeatherDisplay:10.37,2013-03-18 03:14:00,
2013-03-17 23:19:00,17.5,13.2,30.32,NNE,15,0.0,0.0,83,0.00,CLR,,0.00,WeatherDisplay:10.37,2013-03-18 03:19:00,
2013-03-17 23:24:00,17.4,13.4,30.32,NNE,16,0.0,0.0,84,0.00,CLR,,0.00,WeatherDisplay:10.37,2013-03-18 03:24:00,
2013-03-17 23:29:00,17.3,13.3,30.32,NNE,16,0.0,0.0,84,0.00,CLR,,0.00,WeatherDisplay:10.37,2013-03-18 03:29:00,
2013-03-17 23:34:00,17.3,15.4,30.31,NNE,16,0.0,0.0,92,0.00,CLR,,0.00,WeatherDisplay:10.37,2013-03-18 03:34:00,
2013-03-17 23:39:00,17.3,13.3,30.32,NNE,16,0.0,0.0,84,0.00,CLR,,0.00,WeatherDisplay:10.37,2013-03-18 03:39:00,
2013-03-17 23:44:00,17.2,13.2,30.32,NNE,15,0.0,0.0,84,0.00,CLR,,0.00,WeatherDisplay:10.37,2013-03-18 03:44:00,
2013-03-17 23:49:00,17.0,13.0,30.31,NNE,15,0.0,0.0,84,0.00,CLR,,0.00,WeatherDisplay:10.37,2013-03-18 03:49:00,
2013-03-17 23:54:00,16.9,12.9,30.31,NNE,16,0.0,0.0,84,0.00,CLR,,0.00,WeatherDisplay:10.37,2013-03-18 03:54:00,
2013-03-17 23:59:00,16.8,12.8,30.31,NNE,15,0.0,0.0,84,0.00,CLR,,0.00,WeatherDisplay:10.37,2013-03-18 03:59:00,